createdAt,value
2022-12-07T00:00:11.461Z,998.58
2022-12-07T00:01:11.457Z,998.60
2022-12-07T00:02:11.469Z,998.59
2022-12-07T00:03:11.457Z,998.56
2022-12-07T00:04:11.515Z,998.59
2022-12-07T00:05:11.401Z,998.55
2022-12-07T00:06:11.389Z,998.56
2022-12-07T00:07:11.379Z,998.55
2022-12-07T00:08:11.409Z,998.53
2022-12-07T00:09:11.359Z,998.53
2022-12-07T00:10:11.367Z,998.56
2022-12-07T00:11:11.328Z,998.47
2022-12-07T00:12:11.320Z,998.47
2022-12-07T00:13:11.322Z,998.44
2022-12-07T00:14:11.289Z,998.46
2022-12-07T00:15:11.328Z,998.51
2022-12-07T00:16:11.369Z,998.52
2022-12-07T00:17:11.279Z,998.54
2022-12-07T00:18:11.250Z,998.50
2022-12-07T00:19:11.240Z,998.45
2022-12-07T00:20:11.230Z,998.51
2022-12-07T00:21:11.250Z,998.45
2022-12-07T00:22:11.201Z,998.42
2022-12-07T00:23:11.207Z,998.49
2022-12-07T00:24:11.236Z,998.40
2022-12-07T00:25:11.197Z,998.37
2022-12-07T00:26:11.163Z,998.32
2022-12-07T00:27:11.185Z,998.35
2022-12-07T00:28:11.142Z,998.26
2022-12-07T00:29:11.146Z,998.33
2022-12-07T00:30:11.121Z,998.33
2022-12-07T00:31:11.102Z,998.33
2022-12-07T00:32:11.199Z,998.35
2022-12-07T00:33:11.101Z,998.29
2022-12-07T00:34:11.072Z,998.29
2022-12-07T00:35:11.133Z,998.30
2022-12-07T00:36:11.049Z,998.33
2022-12-07T00:37:11.066Z,998.29
2022-12-07T00:38:11.092Z,998.30
2022-12-07T00:39:11.013Z,998.28
2022-12-07T00:40:11.000Z,998.28
2022-12-07T00:41:10.994Z,998.25
2022-12-07T00:42:11.008Z,998.23
2022-12-07T00:43:10.972Z,998.10
2022-12-07T00:44:10.985Z,998.10
2022-12-07T00:45:10.957Z,998.08
2022-12-07T00:46:10.995Z,998.13
2022-12-07T00:47:10.934Z,998.09
2022-12-07T00:48:10.943Z,998.20
2022-12-07T00:49:11.135Z,998.15
2022-12-07T00:50:10.922Z,998.25
2022-12-07T00:51:11.113Z,998.22
2022-12-07T00:52:10.905Z,998.25
2022-12-07T00:53:10.865Z,998.21
2022-12-07T00:54:10.844Z,998.22
2022-12-07T00:55:10.938Z,998.22
2022-12-07T00:56:10.826Z,998.13
2022-12-07T00:57:10.850Z,998.07
2022-12-07T00:58:10.798Z,998.09
2022-12-07T00:59:10.794Z,998.05
2022-12-07T01:00:10.823Z,998.06
2022-12-07T01:01:10.855Z,997.99
2022-12-07T01:02:10.746Z,998.05
2022-12-07T01:03:10.808Z,998.04
2022-12-07T01:04:10.754Z,998.05
2022-12-07T01:05:10.741Z,998.13
2022-12-07T01:06:10.714Z,998.17
2022-12-07T01:07:10.715Z,998.08
2022-12-07T01:08:10.723Z,998.06
2022-12-07T01:09:10.676Z,998.11
2022-12-07T01:10:10.664Z,998.02
2022-12-07T01:11:10.672Z,998.06
2022-12-07T01:12:10.638Z,998.04
2022-12-07T01:13:10.659Z,997.99
2022-12-07T01:14:10.620Z,997.96
2022-12-07T01:15:10.616Z,997.98
2022-12-07T01:16:10.635Z,998.04
2022-12-07T01:17:10.660Z,998.01
2022-12-07T01:18:10.585Z,998.01
2022-12-07T01:19:10.602Z,998.08
2022-12-07T01:20:10.546Z,998.04
2022-12-07T01:21:10.538Z,997.99
2022-12-07T01:22:10.517Z,998.06
2022-12-07T01:23:10.521Z,998.04
2022-12-07T01:24:10.555Z,998.04
2022-12-07T01:25:10.501Z,998.05
2022-12-07T01:26:10.478Z,998.08
2022-12-07T01:27:10.482Z,997.96
2022-12-07T01:28:10.451Z,997.94
2022-12-07T01:29:10.448Z,997.95
2022-12-07T01:30:10.497Z,998.05
2022-12-07T01:31:10.491Z,998.02
2022-12-07T01:32:10.409Z,998.07
2022-12-07T01:33:10.401Z,998.02
2022-12-07T01:34:10.393Z,998.07
2022-12-07T01:35:10.386Z,998.03
2022-12-07T01:36:10.378Z,998.03
2022-12-07T01:37:10.348Z,998.09
2022-12-07T01:38:10.348Z,998.09
2022-12-07T01:39:10.330Z,998.03
2022-12-07T01:40:10.373Z,997.99
2022-12-07T01:41:10.348Z,997.96
2022-12-07T01:42:10.299Z,997.95
2022-12-07T01:43:10.289Z,997.99
2022-12-07T01:44:10.289Z,997.93
2022-12-07T01:45:10.271Z,997.99
2022-12-07T01:46:10.303Z,998.02
2022-12-07T01:47:10.306Z,997.95
2022-12-07T01:48:10.251Z,997.95
2022-12-07T01:49:10.219Z,997.92
2022-12-07T01:50:10.226Z,997.95
2022-12-07T01:51:10.199Z,997.93
2022-12-07T01:52:10.192Z,997.87
2022-12-07T01:53:10.200Z,997.90
2022-12-07T01:54:10.161Z,997.94
2022-12-07T01:55:10.169Z,997.95
2022-12-07T01:56:10.151Z,997.92
2022-12-07T01:57:10.137Z,997.98
2022-12-07T01:58:10.199Z,997.90
2022-12-07T01:59:10.163Z,997.92
2022-12-07T02:00:10.120Z,997.95
2022-12-07T02:01:10.190Z,997.97
2022-12-07T02:02:10.132Z,997.99
2022-12-07T02:03:10.059Z,997.89
2022-12-07T02:04:10.081Z,997.93
2022-12-07T02:05:10.144Z,997.90
2022-12-07T02:06:10.042Z,997.89
2022-12-07T02:07:10.024Z,997.82
2022-12-07T02:08:10.086Z,997.82
2022-12-07T02:09:09.993Z,997.79
2022-12-07T02:10:10.023Z,997.84
2022-12-07T02:11:09.972Z,997.85
2022-12-07T02:12:09.962Z,997.83
2022-12-07T02:13:09.947Z,997.81
2022-12-07T02:14:09.952Z,997.82
2022-12-07T02:15:09.922Z,997.77
2022-12-07T02:16:10.017Z,997.78
2022-12-07T02:17:09.910Z,997.72
2022-12-07T02:18:09.898Z,997.68
2022-12-07T02:19:09.883Z,997.69
2022-12-07T02:20:09.864Z,997.72
2022-12-07T02:21:09.857Z,997.56
2022-12-07T02:22:09.891Z,997.66
2022-12-07T02:23:09.837Z,997.65
2022-12-07T02:24:09.814Z,997.69
2022-12-07T02:25:09.885Z,997.66
2022-12-07T02:26:09.818Z,997.64
2022-12-07T02:27:09.783Z,997.61
2022-12-07T02:28:09.803Z,997.63
2022-12-07T02:29:09.761Z,997.62
2022-12-07T02:30:09.754Z,997.61
2022-12-07T02:31:09.773Z,997.53
2022-12-07T02:32:09.740Z,997.55
2022-12-07T02:33:09.715Z,997.60
2022-12-07T02:34:09.734Z,997.56
2022-12-07T02:35:09.695Z,997.56
2022-12-07T02:36:09.687Z,997.59
2022-12-07T02:37:09.667Z,997.60
2022-12-07T02:38:09.662Z,997.66
2022-12-07T02:39:09.663Z,997.62
2022-12-07T02:40:09.648Z,997.67
2022-12-07T02:41:09.654Z,997.64
2022-12-07T02:42:09.615Z,997.65
2022-12-07T02:43:09.595Z,997.62
2022-12-07T02:44:09.585Z,997.60
2022-12-07T02:45:09.604Z,997.67
2022-12-07T02:46:09.655Z,997.63
2022-12-07T02:47:09.550Z,997.67
2022-12-07T02:48:09.533Z,997.66
2022-12-07T02:49:09.537Z,997.67
2022-12-07T02:50:09.522Z,997.64
2022-12-07T02:51:09.534Z,997.61
2022-12-07T02:52:09.519Z,997.60
2022-12-07T02:53:09.493Z,997.57
2022-12-07T02:54:09.469Z,997.59
2022-12-07T02:55:09.529Z,997.57
2022-12-07T02:56:09.515Z,997.62
2022-12-07T02:57:09.488Z,997.57
2022-12-07T02:58:09.429Z,997.61
2022-12-07T02:59:09.407Z,997.59
2022-12-07T03:00:09.512Z,997.61
2022-12-07T03:01:09.406Z,997.61
2022-12-07T03:02:09.380Z,997.57
2022-12-07T03:03:09.594Z,997.60
2022-12-07T03:04:09.348Z,997.52
2022-12-07T03:05:09.337Z,997.56
2022-12-07T03:06:09.384Z,997.52
2022-12-07T03:07:09.316Z,997.52
2022-12-07T03:08:09.400Z,997.48
2022-12-07T03:09:09.323Z,997.51
2022-12-07T03:10:09.329Z,997.44
2022-12-07T03:11:09.287Z,997.50
2022-12-07T03:12:09.259Z,997.49
2022-12-07T03:13:09.240Z,997.47
2022-12-07T03:14:09.278Z,997.47
2022-12-07T03:15:09.232Z,997.50
2022-12-07T03:16:09.266Z,997.46
2022-12-07T03:17:09.248Z,997.48
2022-12-07T03:18:09.190Z,997.48
2022-12-07T03:19:09.168Z,997.45
2022-12-07T03:20:09.188Z,997.42
2022-12-07T03:21:09.149Z,997.43
2022-12-07T03:22:09.138Z,997.47
2022-12-07T03:23:09.147Z,997.46
2022-12-07T03:24:09.160Z,997.46
2022-12-07T03:25:09.129Z,997.41
2022-12-07T03:26:09.089Z,997.42
2022-12-07T03:27:09.143Z,997.36
2022-12-07T03:28:09.079Z,997.36
2022-12-07T03:29:09.132Z,997.34
2022-12-07T03:30:09.050Z,997.29
2022-12-07T03:31:09.139Z,997.34
2022-12-07T03:32:09.029Z,997.27
2022-12-07T03:33:09.060Z,997.34
2022-12-07T03:34:08.999Z,997.32
2022-12-07T03:35:09.025Z,997.36
2022-12-07T03:36:08.999Z,997.37
2022-12-07T03:37:08.990Z,997.34
2022-12-07T03:38:08.962Z,997.29
2022-12-07T03:39:08.955Z,997.33
2022-12-07T03:40:08.961Z,997.36
2022-12-07T03:41:08.943Z,997.34
2022-12-07T03:42:09.044Z,997.29
2022-12-07T03:43:08.900Z,997.37
2022-12-07T03:44:08.890Z,997.34
2022-12-07T03:45:08.885Z,997.35
2022-12-07T03:46:08.887Z,997.28
2022-12-07T03:47:08.855Z,997.35
2022-12-07T03:48:08.870Z,997.33
2022-12-07T03:49:08.849Z,997.40
2022-12-07T03:50:08.816Z,997.37
2022-12-07T03:51:08.822Z,997.34
2022-12-07T03:52:08.801Z,997.43
2022-12-07T03:53:08.802Z,997.35
2022-12-07T03:54:08.833Z,997.39
2022-12-07T03:55:08.804Z,997.39
2022-12-07T03:56:08.754Z,997.34
2022-12-07T03:57:08.767Z,997.30
2022-12-07T03:58:08.722Z,997.32
2022-12-07T03:59:08.712Z,997.31
2022-12-07T04:00:08.750Z,997.30
2022-12-07T04:01:08.684Z,997.33
2022-12-07T04:02:08.728Z,997.25
2022-12-07T04:03:08.733Z,997.34
2022-12-07T04:04:08.663Z,997.32
2022-12-07T04:05:08.672Z,997.35
2022-12-07T04:06:08.654Z,997.30
2022-12-07T04:07:08.620Z,997.35
2022-12-07T04:08:08.658Z,997.37
2022-12-07T04:09:08.634Z,997.34
2022-12-07T04:10:08.584Z,997.38
2022-12-07T04:11:08.620Z,997.39
2022-12-07T04:12:08.578Z,997.36
2022-12-07T04:13:08.552Z,997.34
2022-12-07T04:14:08.556Z,997.36
2022-12-07T04:15:08.540Z,997.33
2022-12-07T04:16:08.602Z,997.38
2022-12-07T04:17:08.504Z,997.40
2022-12-07T04:18:08.498Z,997.41
2022-12-07T04:19:08.504Z,997.34
2022-12-07T04:20:08.500Z,997.31
2022-12-07T04:21:08.462Z,997.36
2022-12-07T04:22:08.494Z,997.32
2022-12-07T04:23:08.445Z,997.38
2022-12-07T04:24:08.436Z,997.36
2022-12-07T04:25:08.414Z,997.33
2022-12-07T04:26:08.414Z,997.33
2022-12-07T04:27:08.402Z,997.32
2022-12-07T04:28:08.453Z,997.34
2022-12-07T04:29:08.378Z,997.28
2022-12-07T04:30:08.364Z,997.32
2022-12-07T04:31:08.393Z,997.25
2022-12-07T04:32:08.354Z,997.31
2022-12-07T04:33:08.353Z,997.22
2022-12-07T04:34:08.329Z,997.28
2022-12-07T04:35:08.339Z,997.27
2022-12-07T04:36:08.308Z,997.30
2022-12-07T04:37:08.298Z,997.28
2022-12-07T04:38:08.274Z,997.30
2022-12-07T04:39:08.276Z,997.40
2022-12-07T04:40:08.291Z,997.30
2022-12-07T04:41:08.249Z,997.37
2022-12-07T04:42:08.236Z,997.35
2022-12-07T04:43:08.226Z,997.37
2022-12-07T04:44:08.215Z,997.36
2022-12-07T04:45:08.260Z,997.37
2022-12-07T04:46:08.198Z,997.30
2022-12-07T04:47:08.204Z,997.30
2022-12-07T04:48:08.157Z,997.35
2022-12-07T04:49:08.136Z,997.29
2022-12-07T04:50:08.141Z,997.34
2022-12-07T04:51:08.191Z,997.29
2022-12-07T04:52:08.149Z,997.35
2022-12-07T04:53:08.132Z,997.26
2022-12-07T04:54:08.107Z,997.28
2022-12-07T04:55:08.079Z,997.24
2022-12-07T04:56:08.138Z,997.25
2022-12-07T04:57:08.067Z,997.26
2022-12-07T04:58:08.065Z,997.27
2022-12-07T04:59:08.045Z,997.25
2022-12-07T05:00:08.027Z,997.24
2022-12-07T05:01:08.094Z,997.20
2022-12-07T05:02:08.138Z,997.23
2022-12-07T05:03:08.929Z,997.21
2022-12-07T05:04:07.990Z,997.29
2022-12-07T05:05:07.988Z,997.21
2022-12-07T05:06:13.181Z,997.22
2022-12-07T05:07:07.946Z,997.23
2022-12-07T05:08:08.038Z,997.25
2022-12-07T05:09:07.967Z,997.19
2022-12-07T05:10:07.972Z,997.26
2022-12-07T05:11:07.913Z,997.25
2022-12-07T05:12:07.880Z,997.22
2022-12-07T05:13:07.945Z,997.32
2022-12-07T05:14:07.973Z,997.30
2022-12-07T05:15:07.976Z,997.23
2022-12-07T05:16:07.858Z,997.27
2022-12-07T05:17:07.833Z,997.29
2022-12-07T05:18:07.821Z,997.21
2022-12-07T05:19:07.803Z,997.27
2022-12-07T05:20:07.832Z,997.29
2022-12-07T05:21:07.772Z,997.27
2022-12-07T05:22:07.773Z,997.30
2022-12-07T05:23:07.800Z,997.29
2022-12-07T05:24:07.772Z,997.22
2022-12-07T05:25:07.750Z,997.32
2022-12-07T05:26:07.750Z,997.32
2022-12-07T05:27:07.712Z,997.32
2022-12-07T05:28:07.712Z,997.27
2022-12-07T05:29:07.710Z,997.28
2022-12-07T05:30:07.680Z,997.27
2022-12-07T05:31:07.743Z,997.28
2022-12-07T05:32:07.810Z,997.28
2022-12-07T05:33:07.644Z,997.30
2022-12-07T05:34:07.642Z,997.31
2022-12-07T05:35:07.611Z,997.29
2022-12-07T05:36:07.621Z,997.33
2022-12-07T05:37:07.651Z,997.30
2022-12-07T05:38:07.591Z,997.28
2022-12-07T05:39:07.572Z,997.32
2022-12-07T05:40:07.563Z,997.29
2022-12-07T05:41:07.553Z,997.29
2022-12-07T05:42:07.533Z,997.27
2022-12-07T05:43:07.565Z,997.24
2022-12-07T05:44:07.535Z,997.24
2022-12-07T05:45:07.508Z,997.20
2022-12-07T05:46:07.559Z,997.25
2022-12-07T05:47:07.495Z,997.30
2022-12-07T05:48:07.473Z,997.29
2022-12-07T05:49:07.488Z,997.26
2022-12-07T05:50:07.457Z,997.23
2022-12-07T05:51:07.434Z,997.22
2022-12-07T05:52:07.435Z,997.28
2022-12-07T05:53:07.408Z,997.19
2022-12-07T05:54:07.413Z,997.22
2022-12-07T05:55:07.414Z,997.24
2022-12-07T05:56:07.375Z,997.19
2022-12-07T05:57:07.374Z,997.20
2022-12-07T05:58:07.360Z,997.23
2022-12-07T05:59:07.345Z,997.27
2022-12-07T06:00:07.378Z,997.23
2022-12-07T06:01:07.335Z,997.25
2022-12-07T06:02:07.434Z,997.27
2022-12-07T06:03:07.386Z,997.24
2022-12-07T06:04:07.288Z,997.29
2022-12-07T06:05:07.285Z,997.27
2022-12-07T06:06:07.382Z,997.26
2022-12-07T06:07:07.256Z,997.22
2022-12-07T06:08:07.288Z,997.27
2022-12-07T06:09:07.239Z,997.25
2022-12-07T06:10:07.214Z,997.25
2022-12-07T06:11:07.206Z,997.24
2022-12-07T06:12:07.241Z,997.23
2022-12-07T06:13:07.228Z,997.20
2022-12-07T06:14:07.179Z,997.23
2022-12-07T06:15:07.180Z,997.28
2022-12-07T06:16:07.196Z,997.23
2022-12-07T06:17:07.244Z,997.23
2022-12-07T06:18:07.125Z,997.25
2022-12-07T06:19:07.155Z,997.32
2022-12-07T06:20:07.109Z,997.30
2022-12-07T06:21:07.097Z,997.32
2022-12-07T06:22:07.086Z,997.32
2022-12-07T06:23:07.113Z,997.29
2022-12-07T06:24:07.058Z,997.31
2022-12-07T06:25:08.630Z,997.37
2022-12-07T06:26:07.066Z,997.32
2022-12-07T06:27:07.038Z,997.32
2022-12-07T06:28:07.033Z,997.35
2022-12-07T06:29:07.026Z,997.36
2022-12-07T06:30:06.999Z,997.37
2022-12-07T06:31:12.242Z,997.35
2022-12-07T06:32:08.053Z,997.39
2022-12-07T06:33:06.958Z,997.37
2022-12-07T06:34:07.126Z,997.37
2022-12-07T06:35:06.968Z,997.40
2022-12-07T06:36:06.951Z,997.31
2022-12-07T06:37:06.987Z,997.32
2022-12-07T06:38:06.909Z,997.35
2022-12-07T06:39:06.888Z,997.41
2022-12-07T06:40:06.930Z,997.35
2022-12-07T06:41:06.867Z,997.39
2022-12-07T06:42:06.852Z,997.38
2022-12-07T06:43:06.854Z,997.46
2022-12-07T06:44:06.831Z,997.38
2022-12-07T06:45:06.896Z,997.41
2022-12-07T06:46:06.887Z,997.40
2022-12-07T06:47:39.069Z,997.39
2022-12-07T06:48:07.799Z,997.31
2022-12-07T06:49:06.800Z,997.41
2022-12-07T06:50:06.845Z,997.39
2022-12-07T06:51:06.766Z,997.34
2022-12-07T06:52:06.780Z,997.31
2022-12-07T06:53:06.740Z,997.30
2022-12-07T06:54:06.719Z,997.31
2022-12-07T06:55:06.878Z,997.34
2022-12-07T06:56:06.741Z,997.38
2022-12-07T06:57:06.689Z,997.43
2022-12-07T06:58:06.902Z,997.36
2022-12-07T06:59:06.659Z,997.36
2022-12-07T07:00:06.826Z,997.31
2022-12-07T07:01:06.706Z,997.40
2022-12-07T07:02:06.684Z,997.37
2022-12-07T07:03:07.390Z,997.29
2022-12-07T07:04:07.904Z,997.36
2022-12-07T07:05:06.600Z,997.30
2022-12-07T07:06:06.591Z,997.32
2022-12-07T07:07:06.574Z,997.30
2022-12-07T07:08:23.014Z,997.27
2022-12-07T07:09:07.591Z,997.34
2022-12-07T07:10:06.593Z,997.33
2022-12-07T07:11:06.531Z,997.32
2022-12-07T07:12:06.522Z,997.36
2022-12-07T07:13:07.099Z,997.39
2022-12-07T07:14:06.571Z,997.38
2022-12-07T07:15:06.482Z,997.41
2022-12-07T07:16:06.502Z,997.38
2022-12-07T07:17:06.508Z,997.44
2022-12-07T07:18:08.105Z,997.44
2022-12-07T07:19:06.449Z,997.50
2022-12-07T07:20:06.452Z,997.44
2022-12-07T07:21:06.412Z,997.43
2022-12-07T07:22:06.410Z,997.42
2022-12-07T07:23:06.453Z,997.50
2022-12-07T07:24:06.383Z,997.48
2022-12-07T07:25:06.379Z,997.47
2022-12-07T07:26:06.416Z,997.50
2022-12-07T07:27:06.341Z,997.46
2022-12-07T07:28:06.335Z,997.51
2022-12-07T07:29:06.331Z,997.44
2022-12-07T07:30:06.345Z,997.43
2022-12-07T07:31:06.368Z,997.43
2022-12-07T07:32:06.864Z,997.42
2022-12-07T07:33:06.279Z,997.42
2022-12-07T07:34:06.276Z,997.47
2022-12-07T07:35:06.259Z,997.47
2022-12-07T07:36:06.262Z,997.46
2022-12-07T07:37:06.263Z,997.48
2022-12-07T07:38:06.229Z,997.43
2022-12-07T07:39:06.226Z,997.46
2022-12-07T07:40:06.196Z,997.48
2022-12-07T07:41:06.185Z,997.43
2022-12-07T07:42:06.195Z,997.45
2022-12-07T07:43:06.347Z,997.50
2022-12-07T07:44:06.166Z,997.44
2022-12-07T07:45:06.196Z,997.46
2022-12-07T07:46:06.159Z,997.44
2022-12-07T07:47:06.105Z,997.44
2022-12-07T07:48:06.105Z,997.47
2022-12-07T07:49:06.126Z,997.45
2022-12-07T07:50:06.301Z,997.45
2022-12-07T07:51:06.117Z,997.44
2022-12-07T07:52:06.080Z,997.48
2022-12-07T07:53:06.053Z,997.47
2022-12-07T07:54:06.038Z,997.55
2022-12-07T07:55:06.050Z,997.54
2022-12-07T07:56:06.010Z,997.61
2022-12-07T07:57:05.998Z,997.59
2022-12-07T07:58:05.986Z,997.63
2022-12-07T07:59:05.981Z,997.62
2022-12-07T08:00:06.123Z,997.62
2022-12-07T08:01:06.032Z,997.60
2022-12-07T08:02:05.947Z,997.62
2022-12-07T08:03:05.969Z,997.62
2022-12-07T08:04:05.921Z,997.62
2022-12-07T08:05:06.015Z,997.61
2022-12-07T08:06:05.922Z,997.60
2022-12-07T08:07:05.887Z,997.57
2022-12-07T08:08:05.994Z,997.60
2022-12-07T08:09:06.164Z,997.57
2022-12-07T08:10:05.979Z,997.50
2022-12-07T08:11:05.839Z,997.48
2022-12-07T08:12:05.837Z,997.48
2022-12-07T08:13:05.849Z,997.53
2022-12-07T08:14:05.802Z,997.49
2022-12-07T08:15:05.806Z,997.52
2022-12-07T08:16:05.816Z,997.48
2022-12-07T08:17:05.790Z,997.47
2022-12-07T08:18:05.789Z,997.47
2022-12-07T08:19:06.580Z,997.52
2022-12-07T08:20:06.013Z,997.52
2022-12-07T08:21:05.731Z,997.56
2022-12-07T08:22:05.718Z,997.60
2022-12-07T08:23:05.713Z,997.59
2022-12-07T08:24:05.711Z,997.56
2022-12-07T08:25:05.680Z,997.53
2022-12-07T08:26:05.672Z,997.63
2022-12-07T08:27:05.699Z,997.59
2022-12-07T08:28:05.649Z,997.63
2022-12-07T08:29:05.642Z,997.63
2022-12-07T08:30:05.881Z,997.67
2022-12-07T08:31:05.686Z,997.64
2022-12-07T08:32:09.448Z,997.65
2022-12-07T08:33:05.593Z,997.61
2022-12-07T08:34:05.611Z,997.64
2022-12-07T08:35:05.597Z,997.67
2022-12-07T08:36:05.571Z,997.64
2022-12-07T08:37:05.563Z,997.69
2022-12-07T08:38:05.545Z,997.61
2022-12-07T08:39:30.972Z,997.64
2022-12-07T08:40:06.592Z,997.67
2022-12-07T08:41:05.499Z,997.58
2022-12-07T08:42:05.553Z,997.67
2022-12-07T08:43:05.492Z,997.67
2022-12-07T08:44:05.461Z,997.63
2022-12-07T08:45:05.460Z,997.67
2022-12-07T08:46:05.540Z,997.62
2022-12-07T08:47:05.440Z,997.60
2022-12-07T08:48:05.461Z,997.65
2022-12-07T08:49:05.402Z,997.61
2022-12-07T08:50:05.580Z,997.61
2022-12-07T08:51:05.415Z,997.64
2022-12-07T08:52:05.393Z,997.66
2022-12-07T08:53:05.352Z,997.64
2022-12-07T08:54:05.354Z,997.64
2022-12-07T08:55:05.341Z,997.62
2022-12-07T08:56:05.493Z,997.63
2022-12-07T08:57:05.324Z,997.64
2022-12-07T08:58:05.328Z,997.63
2022-12-07T08:59:05.291Z,997.67
2022-12-07T09:00:05.453Z,997.67
2022-12-07T09:01:05.291Z,997.68
2022-12-07T09:02:05.370Z,997.61
2022-12-07T09:03:05.246Z,997.68
2022-12-07T09:04:05.487Z,997.62
2022-12-07T09:05:05.243Z,997.65
2022-12-07T09:06:05.398Z,997.62
2022-12-07T09:07:05.360Z,997.59
2022-12-07T09:08:05.233Z,997.61
2022-12-07T09:09:05.179Z,997.62
2022-12-07T09:10:05.396Z,997.67
2022-12-07T09:11:05.163Z,997.62
2022-12-07T09:12:05.171Z,997.63
2022-12-07T09:13:05.144Z,997.67
2022-12-07T09:14:05.114Z,997.65
2022-12-07T09:15:05.234Z,997.69
2022-12-07T09:16:05.185Z,997.65
2022-12-07T09:17:05.093Z,997.71
2022-12-07T09:18:05.075Z,997.70
2022-12-07T09:19:05.058Z,997.77
2022-12-07T09:20:05.351Z,997.67
2022-12-07T09:21:05.044Z,997.76
2022-12-07T09:22:05.052Z,997.74
2022-12-07T09:23:05.044Z,997.78
2022-12-07T09:24:05.029Z,997.73
2022-12-07T09:25:04.995Z,997.72
2022-12-07T09:26:10.256Z,997.76
2022-12-07T09:27:06.009Z,997.75
2022-12-07T09:28:04.974Z,997.76
2022-12-07T09:29:04.974Z,997.76
2022-12-07T09:30:05.362Z,997.76
2022-12-07T09:31:24.689Z,997.75
2022-12-07T09:32:11.406Z,997.74
2022-12-07T09:33:05.926Z,997.70
2022-12-07T09:34:04.931Z,997.78
2022-12-07T09:35:04.959Z,997.72
2022-12-07T09:36:04.871Z,997.75
2022-12-07T09:37:04.856Z,997.71
2022-12-07T09:38:04.916Z,997.79
2022-12-07T09:39:04.828Z,997.73
2022-12-07T09:40:05.143Z,997.79
2022-12-07T09:41:04.806Z,997.78
2022-12-07T09:42:04.811Z,997.78
2022-12-07T09:43:04.932Z,997.80
2022-12-07T09:44:04.838Z,997.84
2022-12-07T09:45:04.761Z,997.80
2022-12-07T09:46:04.782Z,997.79
2022-12-07T09:47:04.737Z,997.83
2022-12-07T09:48:04.721Z,997.82
2022-12-07T09:49:04.706Z,997.85
2022-12-07T09:50:05.033Z,997.78
2022-12-07T09:51:04.707Z,997.76
2022-12-07T09:52:04.686Z,997.79
2022-12-07T09:53:04.673Z,997.82
2022-12-07T09:54:04.657Z,997.79
2022-12-07T09:55:04.854Z,997.85
2022-12-07T09:56:04.628Z,997.79
2022-12-07T09:57:04.621Z,997.77
2022-12-07T09:58:04.647Z,997.81
2022-12-07T09:59:04.629Z,997.73
2022-12-07T10:00:04.609Z,997.76
2022-12-07T10:01:05.528Z,997.73
2022-12-07T10:02:04.735Z,997.70
2022-12-07T10:03:04.548Z,997.70
2022-12-07T10:04:04.554Z,997.73
2022-12-07T10:05:04.785Z,997.69
2022-12-07T10:06:04.540Z,997.63
2022-12-07T10:07:04.514Z,997.66
2022-12-07T10:08:04.659Z,997.58
2022-12-07T10:09:04.481Z,997.65
2022-12-07T10:10:04.478Z,997.60
2022-12-07T10:11:04.457Z,997.53
2022-12-07T10:12:04.490Z,997.51
2022-12-07T10:13:04.457Z,997.49
2022-12-07T10:14:04.419Z,997.47
2022-12-07T10:15:08.466Z,997.45
2022-12-07T10:16:07.185Z,997.44
2022-12-07T10:17:04.399Z,997.50
2022-12-07T10:18:04.402Z,997.50
2022-12-07T10:19:04.361Z,997.53
2022-12-07T10:20:04.365Z,997.45
2022-12-07T10:21:04.341Z,997.47
2022-12-07T10:22:04.335Z,997.41
2022-12-07T10:23:04.342Z,997.49
2022-12-07T10:24:04.332Z,997.43
2022-12-07T10:25:04.604Z,997.46
2022-12-07T10:26:04.283Z,997.43
2022-12-07T10:27:04.271Z,997.45
2022-12-07T10:28:04.269Z,997.39
2022-12-07T10:29:04.257Z,997.44
2022-12-07T10:30:04.281Z,997.40
2022-12-07T10:31:04.324Z,997.38
2022-12-07T10:32:04.213Z,997.37
2022-12-07T10:33:04.207Z,997.34
2022-12-07T10:34:04.194Z,997.37
2022-12-07T10:35:04.477Z,997.37
2022-12-07T10:36:04.184Z,997.39
2022-12-07T10:37:04.175Z,997.36
2022-12-07T10:38:04.158Z,997.40
2022-12-07T10:39:04.135Z,997.37
2022-12-07T10:40:04.125Z,997.39
2022-12-07T10:41:04.149Z,997.33
2022-12-07T10:42:04.103Z,997.37
2022-12-07T10:43:04.106Z,997.44
2022-12-07T10:44:04.084Z,997.37
2022-12-07T10:45:04.243Z,997.35
2022-12-07T10:46:04.933Z,997.33
2022-12-07T10:47:04.136Z,997.26
2022-12-07T10:48:04.035Z,997.29
2022-12-07T10:49:04.025Z,997.31
2022-12-07T10:50:04.034Z,997.32
2022-12-07T10:51:04.005Z,997.21
2022-12-07T10:52:04.014Z,997.21
2022-12-07T10:53:03.971Z,997.20
2022-12-07T10:54:03.984Z,997.15
2022-12-07T10:55:04.241Z,997.15
2022-12-07T10:56:03.945Z,997.10
2022-12-07T10:57:03.935Z,997.20
2022-12-07T10:58:03.947Z,997.10
2022-12-07T10:59:03.919Z,997.14
2022-12-07T11:00:03.896Z,997.12
2022-12-07T11:01:03.956Z,997.06
2022-12-07T11:02:03.924Z,997.15
2022-12-07T11:03:03.916Z,997.13
2022-12-07T11:04:03.878Z,997.12
2022-12-07T11:05:04.179Z,997.14
2022-12-07T11:06:03.827Z,997.16
2022-12-07T11:07:03.821Z,997.17
2022-12-07T11:08:03.927Z,997.17
2022-12-07T11:09:03.829Z,997.23
2022-12-07T11:10:09.047Z,997.09
2022-12-07T11:11:04.777Z,997.15
2022-12-07T11:12:03.757Z,997.06
2022-12-07T11:13:03.759Z,997.13
2022-12-07T11:14:03.755Z,997.11
2022-12-07T11:15:03.761Z,997.03
2022-12-07T11:16:03.743Z,997.09
2022-12-07T11:17:03.706Z,997.05
2022-12-07T11:18:03.700Z,997.04
2022-12-07T11:19:03.680Z,996.96
2022-12-07T11:20:03.931Z,996.96
2022-12-07T11:21:03.677Z,997.00
2022-12-07T11:22:03.639Z,996.92
2022-12-07T11:23:03.640Z,996.93
2022-12-07T11:24:03.619Z,996.97
2022-12-07T11:25:03.610Z,996.92
2022-12-07T11:26:03.608Z,996.92
2022-12-07T11:27:03.609Z,996.97
2022-12-07T11:28:03.583Z,996.88
2022-12-07T11:29:03.566Z,996.89
2022-12-07T11:30:03.821Z,996.92
2022-12-07T11:31:03.642Z,996.88
2022-12-07T11:32:03.602Z,996.92
2022-12-07T11:33:03.556Z,996.87
2022-12-07T11:34:03.511Z,996.82
2022-12-07T11:35:03.511Z,996.76
2022-12-07T11:36:03.491Z,996.79
2022-12-07T11:37:03.474Z,996.78
2022-12-07T11:38:03.475Z,996.72
2022-12-07T11:39:03.492Z,996.72
2022-12-07T11:40:03.603Z,996.68
2022-12-07T11:41:03.451Z,996.69
2022-12-07T11:42:03.422Z,996.69
2022-12-07T11:43:03.400Z,996.72
2022-12-07T11:44:03.413Z,996.70
2022-12-07T11:45:03.390Z,996.65
2022-12-07T11:46:03.372Z,996.72
2022-12-07T11:47:03.444Z,996.72
2022-12-07T11:48:03.365Z,996.71
2022-12-07T11:49:03.352Z,996.66
2022-12-07T11:50:03.385Z,996.66
2022-12-07T11:51:03.334Z,996.67
2022-12-07T11:52:03.341Z,996.67
2022-12-07T11:53:03.299Z,996.67
2022-12-07T11:54:03.295Z,996.66
2022-12-07T11:55:03.271Z,996.70
2022-12-07T11:56:03.553Z,996.69
2022-12-07T11:57:03.382Z,996.65
2022-12-07T11:58:03.232Z,996.66
2022-12-07T11:59:03.262Z,996.62
2022-12-07T12:00:03.514Z,996.60
2022-12-07T12:01:03.201Z,996.57
2022-12-07T12:02:03.323Z,996.62
2022-12-07T12:03:03.225Z,996.60
2022-12-07T12:04:03.173Z,996.57
2022-12-07T12:05:03.154Z,996.63
2022-12-07T12:06:03.144Z,996.59
2022-12-07T12:10:04.296Z,996.64
2022-12-07T12:11:03.083Z,996.63
2022-12-07T12:14:33.256Z,996.65
2022-12-07T12:15:04.325Z,996.67
2022-12-07T12:16:03.115Z,996.62
2022-12-07T12:17:03.015Z,996.63
2022-12-07T12:18:03.032Z,996.61
2022-12-07T12:19:02.998Z,996.63
2022-12-07T12:20:03.031Z,996.64
2022-12-07T12:21:02.974Z,996.62
2022-12-07T12:22:02.967Z,996.54
2022-12-07T12:23:02.954Z,996.59
2022-12-07T12:24:02.979Z,996.55
2022-12-07T12:25:03.203Z,996.57
2022-12-07T12:26:03.074Z,996.50
2022-12-07T12:27:02.897Z,996.52
2022-12-07T12:28:02.908Z,996.50
2022-12-07T12:29:02.888Z,996.56
2022-12-07T12:30:02.886Z,996.53
2022-12-07T12:31:02.892Z,996.50
2022-12-07T12:32:02.944Z,996.44
2022-12-07T12:33:02.856Z,996.49